Terminal Aerodrome Forecast
Issued by NWS

Home | Current Version | Previous Version | Text Only | Print | Product List | Glossary On
Versions: 1 2 3 4 5 6 7 8 9 10 11 12 13 14 15 16 17 18 19 20
372
FTUS43 KBIS 231323 AAA
TAFJMS
TAF AMD
KJMS 231323Z 2313/2412 36015KT 5SM -RA BR SCT008 OVC013
     FM231500 36015G23KT P6SM VCSH BKN015 BKN035
     FM231700 36014KT P6SM OVC035
     FM240100 02008KT P6SM BKN100=

USA.gov is the U.S. government's official web portal to all federal, state and local government web resources and services.